Time;durP1;ratioP1;P1;durP2;ratioP2;P2;SDS_P1;SDS_P2;PMS_P1;PMS_P2;Temp;Humidity;BMP_temperature;BMP_pressure;BME280_temperature;BME280_humidity;BME280_pressure;Samples;Min_cycle;Max_cycle;Signal;HPM_P1;HPM_P2
2022/07/30 00:01:52;;;;;;;4.50;3.53;;;19.60;99.90;;;;;;5035044;28;20202;-62
2022/07/30 00:04:19;;;;;;;4.00;3.65;;;19.70;99.90;;;;;;5036021;28;20210;-61
2022/07/30 00:06:45;;;;;;;4.13;3.70;;;19.60;99.90;;;;;;5036828;28;20682;-62
2022/07/30 00:09:12;;;;;;;3.80;3.10;;;19.60;99.90;;;;;;5035410;28;20237;-61
2022/07/30 00:11:39;;;;;;;4.03;3.47;;;19.70;99.90;;;;;;5035541;28;20202;-61
2022/07/30 00:14:07;;;;;;;3.70;3.25;;;19.60;99.90;;;;;;5035575;28;20210;-61
2022/07/30 00:16:34;;;;;;;5.78;3.92;;;19.60;99.90;;;;;;5035469;28;20210;-62
2022/07/30 00:19:01;;;;;;;4.82;3.90;;;19.50;99.90;;;;;;5034772;28;20242;-62
2022/07/30 00:21:28;;;;;;;6.63;3.63;;;19.50;99.90;;;;;;5034484;28;20211;-61
2022/07/30 00:23:55;;;;;;;3.90;3.60;;;19.50;99.90;;;;;;5034351;28;20213;-62
2022/07/30 00:26:22;;;;;;;3.55;3.25;;;19.50;99.90;;;;;;5033718;28;20221;-61
2022/07/30 00:28:49;;;;;;;4.70;3.85;;;19.50;99.90;;;;;;5033792;28;20226;-61
2022/07/30 00:31:17;;;;;;;4.13;3.40;;;19.50;99.90;;;;;;5034296;28;20374;-61
2022/07/30 00:33:43;;;;;;;6.32;3.75;;;19.40;99.90;;;;;;5034220;28;20198;-61
2022/07/30 00:36:10;;;;;;;6.05;3.72;;;19.40;99.90;;;;;;5034090;28;20213;-61
2022/07/30 00:38:37;;;;;;;3.88;3.45;;;19.40;99.90;;;;;;5033915;28;20214;-61
2022/07/30 00:41:04;;;;;;;5.18;3.83;;;19.40;99.90;;;;;;5033533;28;20280;-61
2022/07/30 00:43:30;;;;;;;3.95;3.55;;;19.30;99.90;;;;;;5033566;28;20210;-61
2022/07/30 00:45:57;;;;;;;5.00;4.15;;;19.30;99.90;;;;;;5033654;28;20210;-61
2022/07/30 00:48:25;;;;;;;4.68;3.80;;;19.30;99.90;;;;;;5033231;28;20230;-61
2022/07/30 00:50:52;;;;;;;5.40;4.57;;;19.30;99.90;;;;;;5033258;28;20257;-60
2022/07/30 00:53:19;;;;;;;5.25;4.00;;;19.30;99.90;;;;;;5033304;28;20206;-61
2022/07/30 00:55:45;;;;;;;4.70;3.83;;;19.30;99.90;;;;;;5033554;28;20264;-60
2022/07/30 00:58:12;;;;;;;5.38;4.10;;;19.30;99.90;;;;;;5033414;28;20207;-61
2022/07/30 01:00:39;;;;;;;7.22;4.10;;;19.30;99.90;;;;;;5033335;28;20241;-61
2022/07/30 01:03:05;;;;;;;4.80;3.83;;;19.30;99.90;;;;;;5033117;28;20563;-61
2022/07/30 01:05:34;;;;;;;4.97;3.90;;;19.30;99.90;;;;;;5033360;28;20562;-61
2022/07/30 01:08:00;;;;;;;5.53;3.63;;;19.30;99.90;;;;;;5032767;28;20622;-61
2022/07/30 01:10:27;;;;;;;5.90;3.88;;;19.30;99.90;;;;;;5033183;28;20726;-61
2022/07/30 01:12:54;;;;;;;4.25;3.80;;;19.20;99.90;;;;;;5033036;28;20210;-61
2022/07/30 01:15:21;;;;;;;4.88;4.00;;;19.20;99.90;;;;;;5033032;28;20210;-61
2022/07/30 01:17:50;;;;;;;4.43;4.03;;;19.10;99.90;;;;;;5032541;28;20210;-61
2022/07/30 01:20:21;;;;;;;6.55;4.45;;;19.10;99.90;;;;;;5032711;28;20230;-61
2022/07/30 01:23:01;;;;;;;4.25;3.85;;;19.00;99.90;;;;;;5033048;28;20296;-61
2022/07/30 01:25:51;;;;;;;4.90;3.97;;;19.00;99.90;;;;;;5033142;28;20205;-61
2022/07/30 01:28:23;;;;;;;5.60;4.10;;;19.00;99.90;;;;;;5033034;28;20288;-61
2022/07/30 01:30:51;;;;;;;5.18;4.30;;;18.90;99.90;;;;;;5032608;28;20237;-61
2022/07/30 01:33:20;;;;;;;4.70;4.20;;;18.80;99.90;;;;;;5032685;28;20205;-61
2022/07/30 01:35:49;;;;;;;5.40;4.20;;;18.80;99.90;;;;;;5033437;28;20731;-61
2022/07/30 01:38:20;;;;;;;4.80;4.07;;;18.80;99.90;;;;;;5032403;28;20209;-62
2022/07/30 01:40:48;;;;;;;5.15;4.65;;;18.90;99.90;;;;;;5033074;28;20234;-61
2022/07/30 01:43:17;;;;;;;4.57;4.18;;;18.90;99.90;;;;;;5032425;28;20580;-61
2022/07/30 01:45:47;;;;;;;5.00;4.22;;;18.90;99.90;;;;;;5032662;28;20210;-62
2022/07/30 01:48:16;;;;;;;6.13;4.70;;;18.90;99.90;;;;;;5032491;28;20237;-61
2022/07/30 01:50:45;;;;;;;5.97;4.40;;;18.90;99.90;;;;;;5032873;28;20230;-62
2022/07/30 01:53:15;;;;;;;5.25;3.90;;;19.00;99.90;;;;;;5032707;28;20620;-63
2022/07/30 01:55:43;;;;;;;7.25;3.80;;;19.00;99.90;;;;;;5032148;28;20249;-58
2022/07/30 01:58:11;;;;;;;4.43;3.95;;;19.00;99.90;;;;;;5032655;28;20221;-58
2022/07/30 02:00:39;;;;;;;4.20;3.80;;;19.00;99.90;;;;;;5032432;28;20241;-57
2022/07/30 02:03:09;;;;;;;5.40;3.80;;;19.00;99.90;;;;;;5032495;28;20210;-57
2022/07/30 02:05:37;;;;;;;4.95;4.05;;;19.00;99.90;;;;;;5032309;28;20214;-58
2022/07/30 02:08:10;;;;;;;4.82;3.58;;;19.00;99.90;;;;;;5031911;28;20222;-58
2022/07/30 02:10:43;;;;;;;4.30;3.60;;;19.00;99.90;;;;;;5032040;28;20732;-58
2022/07/30 02:13:12;;;;;;;7.88;3.78;;;19.00;99.90;;;;;;5032048;28;20202;-57
2022/07/30 02:15:45;;;;;;;4.57;3.72;;;18.90;99.90;;;;;;5032315;28;20206;-58
2022/07/30 02:18:17;;;;;;;4.30;3.90;;;18.90;99.90;;;;;;5031869;28;20672;-58
2022/07/30 02:20:48;;;;;;;5.80;4.28;;;18.90;99.90;;;;;;5032006;28;20230;-58
2022/07/30 02:23:16;;;;;;;4.85;3.90;;;18.80;99.90;;;;;;5032290;28;20210;-58
2022/07/30 02:25:46;;;;;;;4.45;4.03;;;18.80;99.90;;;;;;5032374;28;20207;-58
2022/07/30 02:28:15;;;;;;;5.30;4.15;;;18.70;99.90;;;;;;5032181;28;20253;-58
2022/07/30 02:30:46;;;;;;;5.13;3.75;;;18.70;99.90;;;;;;5032355;28;20230;-58
2022/07/30 02:33:17;;;;;;;4.88;3.50;;;18.70;99.90;;;;;;5032159;28;20210;-58
2022/07/30 02:35:44;;;;;;;4.22;3.42;;;18.70;99.90;;;;;;5032557;28;20206;-58
2022/07/30 02:38:13;;;;;;;4.78;3.40;;;18.60;99.90;;;;;;5032054;28;20255;-59
2022/07/30 02:40:41;;;;;;;4.25;3.85;;;18.60;99.90;;;;;;5031839;28;20351;-59
2022/07/30 02:43:08;;;;;;;3.80;3.50;;;18.50;99.90;;;;;;5031827;28;20272;-58
2022/07/30 02:45:37;;;;;;;4.55;4.15;;;18.40;99.90;;;;;;5031835;28;20217;-59
2022/07/30 02:48:06;;;;;;;3.42;3.13;;;18.40;99.90;;;;;;5031478;28;20285;-58
2022/07/30 02:50:35;;;;;;;4.00;3.60;;;18.30;99.90;;;;;;5033971;28;20284;-58
2022/07/30 02:53:04;;;;;;;5.65;3.50;;;18.30;99.90;;;;;;5035833;28;20678;-58
2022/07/30 02:55:34;;;;;;;4.13;3.72;;;18.20;99.90;;;;;;5035758;28;20201;-58
2022/07/30 02:58:02;;;;;;;3.95;3.60;;;18.20;99.90;;;;;;5035441;28;20206;-58
2022/07/30 03:00:30;;;;;;;4.28;3.90;;;18.10;99.90;;;;;;5035389;28;20226;-59
2022/07/30 03:02:58;;;;;;;4.30;3.90;;;18.10;99.90;;;;;;5035315;28;20206;-59
2022/07/30 03:05:25;;;;;;;4.70;3.70;;;18.00;99.90;;;;;;5035610;28;20213;-58
2022/07/30 03:07:55;;;;;;;5.10;4.25;;;18.00;99.90;;;;;;5035039;28;20234;-58
2022/07/30 03:10:22;;;;;;;4.68;4.00;;;17.90;99.90;;;;;;5035587;28;20226;-58
2022/07/30 03:12:50;;;;;;;6.22;3.97;;;17.90;99.90;;;;;;5035226;28;20214;-59
2022/07/30 03:15:17;;;;;;;5.95;3.90;;;17.90;99.90;;;;;;5035426;28;20206;-59
2022/07/30 03:17:48;;;;;;;5.38;4.10;;;17.90;99.90;;;;;;5034862;28;20217;-58
2022/07/30 03:20:23;;;;;;;5.70;3.97;;;17.80;99.90;;;;;;5035082;28;20717;-59
2022/07/30 03:22:52;;;;;;;4.80;4.32;;;17.90;99.90;;;;;;5035339;28;20216;-59
2022/07/30 03:25:23;;;;;;;4.45;4.05;;;17.80;99.90;;;;;;5035472;28;20222;-58
2022/07/30 03:27:51;;;;;;;5.57;4.18;;;17.80;99.90;;;;;;5035657;28;20210;-58
2022/07/30 03:30:18;;;;;;;5.03;4.43;;;17.80;99.90;;;;;;5035742;28;20222;-58
2022/07/30 03:32:45;;;;;;;5.70;3.95;;;17.80;99.90;;;;;;5035165;28;20202;-58
2022/07/30 03:35:12;;;;;;;6.18;4.15;;;17.80;99.90;;;;;;5034855;28;20210;-58
2022/07/30 03:37:40;;;;;;;5.93;3.80;;;17.70;99.90;;;;;;5034594;28;20210;-58
2022/07/30 03:40:08;;;;;;;6.18;4.38;;;17.70;99.90;;;;;;5034935;28;20661;-57
2022/07/30 03:42:37;;;;;;;4.50;4.10;;;17.60;99.90;;;;;;5034574;28;20307;-57
2022/07/30 03:45:06;;;;;;;4.22;3.83;;;17.50;99.90;;;;;;5034758;28;20206;-58
2022/07/30 03:47:36;;;;;;;5.15;4.38;;;17.50;99.90;;;;;;5034701;28;20202;-58
2022/07/30 03:50:04;;;;;;;7.07;4.50;;;17.40;99.90;;;;;;5034484;28;20229;-58
2022/07/30 03:52:33;;;;;;;5.55;4.63;;;17.40;99.90;;;;;;5034563;28;20210;-57
2022/07/30 03:55:00;;;;;;;5.10;4.43;;;17.30;99.90;;;;;;5034697;28;20566;-58
2022/07/30 03:57:27;;;;;;;6.23;4.80;;;17.30;99.90;;;;;;5034616;28;20213;-58
2022/07/30 03:59:55;;;;;;;5.40;4.18;;;17.30;99.90;;;;;;5033971;28;20226;-57
2022/07/30 04:02:22;;;;;;;4.90;4.40;;;17.30;99.90;;;;;;5033249;28;20582;-57
2022/07/30 04:04:49;;;;;;;5.30;4.10;;;17.30;99.90;;;;;;5034228;28;20214;-57
2022/07/30 04:07:15;;;;;;;4.25;3.85;;;17.30;99.90;;;;;;5034042;28;20210;-58
2022/07/30 04:09:42;;;;;;;4.90;4.03;;;17.30;99.90;;;;;;5034123;28;20234;-57
2022/07/30 04:12:09;;;;;;;5.47;4.03;;;17.30;99.90;;;;;;5034326;28;20599;-57
2022/07/30 04:14:40;;;;;;;5.93;4.65;;;17.40;99.90;;;;;;5034179;28;20210;-58
2022/07/30 04:17:16;;;;;;;5.43;4.88;;;17.40;99.90;;;;;;5034078;28;20893;-58
2022/07/30 04:19:47;;;;;;;6.53;4.57;;;17.40;99.90;;;;;;5033802;28;20268;-57
2022/07/30 04:22:16;;;;;;;4.10;3.70;;;17.40;99.90;;;;;;5034087;28;20240;-57
2022/07/30 04:24:44;;;;;;;5.28;4.47;;;17.40;99.90;;;;;;5034052;28;20214;-57
2022/07/30 04:27:11;;;;;;;4.97;4.50;;;17.50;99.90;;;;;;5034285;28;20206;-57
2022/07/30 04:29:39;;;;;;;5.03;4.25;;;17.50;99.90;;;;;;5034293;28;20230;-57
2022/07/30 04:32:09;;;;;;;4.72;4.22;;;17.50;99.90;;;;;;5034691;28;20678;-58
2022/07/30 04:34:36;;;;;;;4.82;4.22;;;17.60;99.90;;;;;;5035502;28;20215;-57
2022/07/30 04:37:03;;;;;;;5.18;4.53;;;17.60;99.90;;;;;;5035646;28;20612;-56
2022/07/30 04:39:30;;;;;;;4.97;4.57;;;17.60;99.90;;;;;;5035355;28;20238;-57
2022/07/30 04:41:56;;;;;;;5.65;4.40;;;17.60;99.90;;;;;;5035488;28;20207;-57
2022/07/30 04:44:23;;;;;;;4.38;3.97;;;17.70;99.90;;;;;;5036017;28;20203;-57
2022/07/30 04:46:50;;;;;;;5.32;4.20;;;17.70;99.90;;;;;;5035426;28;20212;-58
2022/07/30 04:49:19;;;;;;;4.40;3.97;;;17.70;99.90;;;;;;5034471;28;20710;-57
2022/07/30 04:51:46;;;;;;;4.78;4.22;;;17.70;99.90;;;;;;5033859;28;20221;-57
2022/07/30 04:54:14;;;;;;;4.85;4.15;;;17.80;99.90;;;;;;5033745;28;20210;-56
2022/07/30 04:56:42;;;;;;;6.77;4.10;;;17.80;99.90;;;;;;5033512;28;20210;-57
2022/07/30 04:59:10;;;;;;;4.38;3.97;;;17.80;99.90;;;;;;5032905;28;20222;-58
2022/07/30 05:01:37;;;;;;;6.47;4.50;;;17.80;99.90;;;;;;5033252;28;20254;-58
2022/07/30 05:04:06;;;;;;;5.50;4.30;;;17.90;99.90;;;;;;5033336;28;20213;-58
2022/07/30 05:06:35;;;;;;;5.00;3.95;;;18.00;99.90;;;;;;5033438;28;20202;-56
2022/07/30 05:09:02;;;;;;;5.20;4.43;;;18.10;99.90;;;;;;5033047;28;20284;-56
2022/07/30 05:11:29;;;;;;;4.82;4.32;;;18.20;99.90;;;;;;5033123;28;20727;-59
2022/07/30 05:13:56;;;;;;;5.97;5.38;;;18.40;99.90;;;;;;5033174;28;20260;-56
2022/07/30 05:16:23;;;;;;;5.80;4.82;;;18.50;99.90;;;;;;5033849;28;20210;-56
2022/07/30 05:18:50;;;;;;;5.57;4.50;;;18.60;99.90;;;;;;5033185;28;20214;-56
2022/07/30 05:21:17;;;;;;;7.05;6.10;;;18.80;99.90;;;;;;5033176;28;20214;-58
2022/07/30 05:23:45;;;;;;;6.32;5.07;;;18.80;99.90;;;;;;5032855;28;20233;-57
2022/07/30 05:26:12;;;;;;;5.70;4.72;;;18.90;99.90;;;;;;5032888;28;20209;-57
2022/07/30 05:28:38;;;;;;;5.03;4.53;;;19.10;99.90;;;;;;5033030;28;20237;-59
2022/07/30 05:31:05;;;;;;;5.70;4.05;;;19.10;99.90;;;;;;5032999;28;20236;-59
2022/07/30 05:33:32;;;;;;;5.20;4.18;;;19.30;99.90;;;;;;5032810;28;20218;-59
2022/07/30 05:35:59;;;;;;;5.38;4.18;;;19.50;99.90;;;;;;5032926;28;20205;-59
2022/07/30 05:38:26;;;;;;;5.10;4.20;;;19.80;99.90;;;;;;5032618;28;20549;-58
2022/07/30 05:40:54;;;;;;;9.43;4.13;;;21.10;99.90;;;;;;5032854;28;20260;-58
2022/07/30 05:43:20;;;;;;;5.68;3.85;;;22.80;99.90;;;;;;5033056;28;20218;-58
2022/07/30 05:45:47;;;;;;;5.60;3.63;;;23.40;99.90;;;;;;5033221;28;20217;-57
2022/07/30 05:48:14;;;;;;;5.50;4.05;;;23.30;99.90;;;;;;5032927;28;20674;-58
2022/07/30 05:50:41;;;;;;;6.53;4.30;;;23.70;99.90;;;;;;5033371;28;20222;-58
2022/07/30 05:53:07;;;;;;;4.30;3.45;;;25.00;99.90;;;;;;5033740;28;20217;-58
2022/07/30 05:55:34;;;;;;;6.50;3.67;;;26.70;99.90;;;;;;5034504;28;20667;-60
2022/07/30 05:58:02;;;;;;;4.88;3.30;;;28.10;99.90;;;;;;5033461;28;20214;-59
2022/07/30 06:00:29;;;;;;;4.55;3.45;;;29.30;97.10;;;;;;5034149;28;20226;-60
2022/07/30 06:02:56;;;;;;;6.75;3.35;;;30.50;93.30;;;;;;5033893;28;20210;-60
2022/07/30 06:05:23;;;;;;;5.03;3.38;;;31.60;89.00;;;;;;5033692;28;20206;-59
2022/07/30 06:07:49;;;;;;;4.47;3.28;;;32.40;82.80;;;;;;5033829;28;20210;-59
2022/07/30 06:10:16;;;;;;;6.85;2.80;;;32.80;79.90;;;;;;5032825;28;20237;-60
2022/07/30 06:12:43;;;;;;;7.13;3.45;;;33.20;75.20;;;;;;5033137;28;20217;-60
2022/07/30 06:15:11;;;;;;;7.07;3.15;;;32.70;74.60;;;;;;5032874;28;20584;-59
2022/07/30 06:17:42;;;;;;;4.57;3.10;;;32.70;74.70;;;;;;5032403;28;20607;-59
2022/07/30 06:20:10;;;;;;;7.35;3.20;;;32.60;72.20;;;;;;5032420;28;20231;-59
2022/07/30 06:22:37;;;;;;;4.05;3.05;;;32.70;72.90;;;;;;5032264;28;20212;-59
2022/07/30 06:25:04;;;;;;;4.95;3.00;;;33.70;69.60;;;;;;5023296;28;20210;-58
2022/07/30 06:27:32;;;;;;;4.75;3.00;;;34.90;66.10;;;;;;5021319;28;20202;-62
2022/07/30 06:29:59;;;;;;;5.90;3.10;;;35.90;64.10;;;;;;5038144;28;20610;-62
2022/07/30 06:32:27;;;;;;;7.18;2.83;;;37.10;59.70;;;;;;5038274;28;20216;-63
2022/07/30 06:34:54;;;;;;;6.13;3.13;;;38.20;56.80;;;;;;5033038;28;20674;-64
2022/07/30 06:37:21;;;;;;;5.88;3.13;;;38.80;55.00;;;;;;5017390;28;20713;-60
2022/07/30 06:39:47;;;;;;;4.95;2.92;;;39.10;52.50;;;;;;5016464;28;20230;-61
2022/07/30 06:42:14;;;;;;;6.50;3.08;;;39.70;52.40;;;;;;5017330;28;20218;-58
2022/07/30 06:44:41;;;;;;;7.82;3.28;;;40.30;50.40;;;;;;5017613;28;20233;-60
2022/07/30 06:47:08;;;;;;;3.50;2.72;;;40.90;47.60;;;;;;5016338;28;20207;-58
2022/07/30 06:49:37;;;;;;;7.05;3.33;;;41.20;47.20;;;;;;5015400;28;20238;-61
2022/07/30 06:52:04;;;;;;;4.60;2.72;;;41.70;46.50;;;;;;5018141;28;20214;-62
2022/07/30 06:54:32;;;;;;;4.15;2.70;;;42.20;45.30;;;;;;5016884;28;20214;-60
2022/07/30 06:56:58;;;;;;;5.03;3.80;;;42.70;44.50;;;;;;5016843;28;20210;-60
2022/07/30 06:59:26;;;;;;;5.00;3.20;;;43.20;43.80;;;;;;5015436;28;20226;-59
2022/07/30 07:01:53;;;;;;;7.07;3.15;;;43.60;42.20;;;;;;5015048;28;20206;-58
2022/07/30 07:04:20;;;;;;;5.00;2.70;;;43.30;42.00;;;;;;5015458;28;20241;-59
2022/07/30 07:06:48;;;;;;;5.25;3.00;;;43.50;41.90;;;;;;5015440;28;20217;-59
2022/07/30 07:09:15;;;;;;;5.28;2.92;;;43.10;40.50;;;;;;5015061;28;20233;-59
2022/07/30 07:11:41;;;;;;;4.25;3.33;;;42.50;41.40;;;;;;5015444;28;20219;-59
2022/07/30 07:14:08;;;;;;;6.47;2.60;;;42.40;41.40;;;;;;5014653;28;20203;-59
2022/07/30 07:16:35;;;;;;;6.07;2.60;;;42.80;41.10;;;;;;5015076;28;20313;-59
2022/07/30 07:19:02;;;;;;;4.40;2.78;;;43.30;40.50;;;;;;5014583;28;20750;-58
2022/07/30 07:21:28;;;;;;;5.43;2.45;;;43.90;39.50;;;;;;5014665;28;20211;-58
2022/07/30 07:23:59;;;;;;;5.75;2.80;;;44.20;39.10;;;;;;5015032;28;20233;-58
2022/07/30 07:26:26;;;;;;;4.38;2.80;;;44.30;38.00;;;;;;5014534;28;20286;-59
2022/07/30 07:28:52;;;;;;;7.10;2.80;;;44.00;38.10;;;;;;5014361;28;20202;-59
2022/07/30 07:31:19;;;;;;;5.90;2.60;;;43.60;38.10;;;;;;5014507;28;20210;-59
2022/07/30 07:33:46;;;;;;;5.28;2.67;;;42.70;38.90;;;;;;5014433;28;20202;-60
2022/07/30 07:36:13;;;;;;;7.50;2.63;;;41.60;40.40;;;;;;5027554;28;20201;-59
2022/07/30 07:38:40;;;;;;;7.80;2.50;;;41.90;40.10;;;;;;5033707;28;20208;-59
2022/07/30 07:41:08;;;;;;;5.97;2.80;;;42.40;39.50;;;;;;5034203;28;20213;-59
2022/07/30 07:43:35;;;;;;;5.65;2.65;;;42.20;39.30;;;;;;5034005;28;20221;-60
2022/07/30 07:46:02;;;;;;;5.65;2.90;;;41.80;39.40;;;;;;5033787;28;20596;-58
2022/07/30 07:48:29;;;;;;;6.50;2.88;;;41.80;39.40;;;;;;5033925;28;20212;-58
2022/07/30 07:50:56;;;;;;;4.63;3.00;;;41.20;40.20;;;;;;5034006;28;20225;-58
2022/07/30 07:53:22;;;;;;;5.82;3.30;;;40.40;40.90;;;;;;5033946;28;20673;-58
2022/07/30 07:55:49;;;;;;;3.90;2.92;;;40.30;41.30;;;;;;5034832;28;20292;-59
2022/07/30 07:58:18;;;;;;;4.43;2.67;;;40.50;41.30;;;;;;5033130;28;20670;-59
2022/07/30 08:00:44;;;;;;;5.35;2.85;;;40.90;40.40;;;;;;5033293;28;20233;-59
2022/07/30 08:03:11;;;;;;;5.57;2.60;;;40.90;40.40;;;;;;5032902;28;20705;-59
2022/07/30 08:05:38;;;;;;;4.53;3.10;;;40.90;40.40;;;;;;5033433;28;20213;-59
2022/07/30 08:08:05;;;;;;;4.32;3.00;;;40.40;40.60;;;;;;5033664;28;20202;-59
2022/07/30 08:10:32;;;;;;;5.72;2.80;;;40.30;40.60;;;;;;5033138;28;20236;-59
2022/07/30 08:12:59;;;;;;;7.00;3.35;;;39.70;41.50;;;;;;5033023;28;20675;-59
2022/07/30 08:15:27;;;;;;;4.78;3.00;;;39.70;41.30;;;;;;5033414;28;20214;-59
2022/07/30 08:17:54;;;;;;;7.22;3.00;;;40.10;40.50;;;;;;5033389;28;20212;-60
2022/07/30 08:20:21;;;;;;;7.78;3.55;;;40.30;40.80;;;;;;5033998;28;20228;-62
2022/07/30 08:22:47;;;;;;;4.38;3.15;;;40.60;39.90;;;;;;5035013;28;20214;-64
2022/07/30 08:25:14;;;;;;;4.32;2.72;;;40.10;39.90;;;;;;5035473;28;20201;-62
2022/07/30 08:27:41;;;;;;;6.32;2.88;;;39.60;40.50;;;;;;5034773;28;20209;-63
2022/07/30 08:30:09;;;;;;;8.07;2.88;;;39.80;40.80;;;;;;5035560;28;20229;-61
2022/07/30 08:32:38;;;;;;;7.68;3.38;;;39.70;40.50;;;;;;5035794;28;20213;-61
2022/07/30 08:35:06;;;;;;;8.25;3.00;;;39.90;40.10;;;;;;5036131;28;20217;-62
2022/07/30 08:37:33;;;;;;;5.07;2.60;;;40.30;39.10;;;;;;5036237;28;20201;-62
2022/07/30 08:40:00;;;;;;;5.22;2.80;;;40.30;38.60;;;;;;5035361;28;20226;-61
2022/07/30 08:42:27;;;;;;;3.75;2.58;;;39.90;38.80;;;;;;5035621;28;20297;-62
2022/07/30 08:44:54;;;;;;;6.40;3.00;;;39.40;39.40;;;;;;5034764;28;20206;-63
2022/07/30 08:47:25;;;;;;;5.43;2.90;;;38.60;39.80;;;;;;5034612;28;20648;-63
2022/07/30 08:49:54;;;;;;;6.30;2.55;;;37.20;41.30;;;;;;5034578;28;20237;-62
2022/07/30 08:52:22;;;;;;;5.35;2.30;;;35.40;43.20;;;;;;5034740;28;20214;-62
2022/07/30 08:54:48;;;;;;;5.93;3.00;;;33.60;45.20;;;;;;5034829;28;20206;-61
2022/07/30 08:57:16;;;;;;;5.28;2.40;;;32.00;47.30;;;;;;5034200;28;20209;-62
2022/07/30 08:59:43;;;;;;;4.10;3.17;;;31.00;49.40;;;;;;5034521;28;20230;-61
2022/07/30 09:02:10;;;;;;;4.60;2.42;;;30.10;51.70;;;;;;5035118;28;20206;-61
2022/07/30 09:04:36;;;;;;;4.63;2.80;;;29.50;52.70;;;;;;5035464;28;20206;-62
2022/07/30 09:07:04;;;;;;;4.93;2.60;;;29.10;52.50;;;;;;5034671;28;20201;-61
2022/07/30 09:09:31;;;;;;;5.03;2.60;;;28.80;53.00;;;;;;5033979;28;20230;-62
2022/07/30 09:11:59;;;;;;;7.07;2.33;;;28.50;53.90;;;;;;5034331;28;20206;-62
2022/07/30 09:14:25;;;;;;;5.05;2.70;;;28.10;54.60;;;;;;5035071;28;20210;-61
2022/07/30 09:16:56;;;;;;;5.53;2.47;;;27.90;54.90;;;;;;5034600;28;20217;-61
2022/07/30 09:19:23;;;;;;;6.05;2.47;;;27.90;55.30;;;;;;5034776;28;20295;-61
2022/07/30 09:21:57;;;;;;;8.57;2.75;;;27.70;56.00;;;;;;5034330;28;20686;-61
2022/07/30 09:24:26;;;;;;;7.75;2.40;;;27.50;57.20;;;;;;5035394;28;20202;-61
2022/07/30 09:26:57;;;;;;;6.72;2.70;;;27.50;57.30;;;;;;5035076;28;20212;-62
2022/07/30 09:29:26;;;;;;;3.08;2.22;;;27.50;57.60;;;;;;5035047;28;20234;-61
2022/07/30 09:31:54;;;;;;;8.82;2.35;;;27.60;57.80;;;;;;5035405;28;20206;-61
2022/07/30 09:34:28;;;;;;;2.72;2.28;;;27.70;57.40;;;;;;5035094;28;20210;-61
2022/07/30 09:36:56;;;;;;;6.15;2.38;;;27.80;56.90;;;;;;5035626;28;20438;-61
2022/07/30 09:39:32;;;;;;;5.93;2.20;;;27.80;57.10;;;;;;5048096;23;20230;-64
2022/07/30 09:41:59;;;;;;;5.18;2.42;;;27.80;57.30;;;;;;5023846;28;20205;-64
2022/07/30 09:44:27;;;;;;;5.60;2.13;;;27.60;57.30;;;;;;5014965;28;20207;-64
2022/07/30 09:46:54;;;;;;;5.00;2.50;;;27.60;57.50;;;;;;5012330;28;20207;-63
2022/07/30 09:49:22;;;;;;;4.57;2.50;;;27.70;58.00;;;;;;5012496;28;20211;-64
2022/07/30 09:51:49;;;;;;;5.63;2.30;;;27.90;57.50;;;;;;5012394;28;20322;-64
2022/07/30 09:54:16;;;;;;;3.78;2.63;;;28.20;57.20;;;;;;5012549;28;20207;-64
2022/07/30 09:56:45;;;;;;;3.25;1.85;;;28.70;56.60;;;;;;5012317;28;20219;-64
2022/07/30 09:59:28;;;;;;;5.13;2.45;;;29.00;55.20;;;;;;5011202;28;20317;-64
2022/07/30 10:01:56;;;;;;;5.97;2.63;;;29.10;54.60;;;;;;5012251;28;20257;-64
2022/07/30 10:04:27;;;;;;;5.43;2.30;;;28.90;55.00;;;;;;5012639;28;20211;-63
2022/07/30 10:06:54;;;;;;;7.07;2.33;;;28.70;55.70;;;;;;5012155;28;20203;-63
2022/07/30 10:09:28;;;;;;;7.07;3.60;;;28.50;55.80;;;;;;5011755;28;20230;-63
2022/07/30 10:11:59;;;;;;;4.82;2.67;;;28.50;56.20;;;;;;5011860;28;20221;-64
2022/07/30 10:14:29;;;;;;;4.28;2.42;;;28.70;55.60;;;;;;5012281;28;20203;-64
2022/07/30 10:16:57;;;;;;;8.48;2.33;;;29.10;54.70;;;;;;5012094;28;20693;-64
2022/07/30 10:19:24;;;;;;;4.05;2.20;;;29.40;54.70;;;;;;5011482;28;20207;-64
2022/07/30 10:21:52;;;;;;;4.50;2.30;;;29.40;54.40;;;;;;5012556;28;20203;-64
2022/07/30 10:24:19;;;;;;;4.05;1.77;;;29.30;54.90;;;;;;5011926;28;20202;-64
2022/07/30 10:26:46;;;;;;;8.75;2.10;;;29.10;55.30;;;;;;5011902;28;20257;-64
2022/07/30 10:29:17;;;;;;;7.43;1.95;;;28.90;54.90;;;;;;5011595;28;20293;-64
2022/07/30 10:31:44;;;;;;;3.58;2.00;;;28.80;54.30;;;;;;5011556;28;20698;-64
2022/07/30 10:34:12;;;;;;;4.03;1.90;;;28.90;54.40;;;;;;5011747;28;20258;-64
2022/07/30 10:36:41;;;;;;;4.85;1.70;;;29.00;54.30;;;;;;5011634;28;20675;-64
2022/07/30 10:39:10;;;;;;;3.97;1.88;;;29.10;53.80;;;;;;5011491;28;20629;-64
2022/07/30 10:41:46;;;;;;;5.15;2.25;;;29.20;54.10;;;;;;5011732;28;20215;-63
2022/07/30 10:44:46;;;;;;;4.22;2.00;;;29.30;54.60;;;;;;5011879;28;20269;-64
2022/07/30 10:47:17;;;;;;;4.68;2.13;;;29.20;54.70;;;;;;5011505;28;20253;-65
2022/07/30 10:50:04;;;;;;;6.70;2.08;;;29.00;54.70;;;;;;5011639;28;20238;-64
2022/07/30 10:52:52;;;;;;;4.95;2.05;;;29.20;54.60;;;;;;5011798;28;20842;-64
2022/07/30 10:55:22;;;;;;;8.82;2.30;;;29.40;54.20;;;;;;5011692;28;20211;-64
2022/07/30 10:58:03;;;;;;;3.83;2.30;;;29.60;53.30;;;;;;5011552;28;20207;-64
2022/07/30 11:00:32;;;;;;;4.57;2.00;;;29.50;53.20;;;;;;5013811;28;20723;-64
2022/07/30 11:03:13;;;;;;;4.63;1.80;;;29.30;54.70;;;;;;5014588;28;20206;-65
2022/07/30 11:05:40;;;;;;;4.90;2.03;;;29.40;54.30;;;;;;5012845;28;20207;-64
2022/07/30 11:08:34;;;;;;;9.48;5.07;;;29.40;54.20;;;;;;5013247;28;20303;-63
2022/07/30 11:11:01;;;;;;;7.45;2.20;;;29.50;53.50;;;;;;5012656;28;20285;-64
2022/07/30 11:13:50;;;;;;;4.05;2.00;;;29.50;52.70;;;;;;5015196;28;20293;-64
2022/07/30 11:16:19;;;;;;;5.55;2.47;;;29.60;52.70;;;;;;5014751;28;20642;-63
2022/07/30 11:19:04;;;;;;;4.35;1.67;;;29.80;52.40;;;;;;5014767;28;20230;-64
2022/07/30 11:21:31;;;;;;;3.00;2.15;;;30.00;51.30;;;;;;5014986;28;20562;-63
2022/07/30 11:23:58;;;;;;;3.65;1.83;;;30.00;52.00;;;;;;5014806;28;20682;-64
2022/07/30 11:26:50;;;;;;;2.80;1.85;;;30.00;52.10;;;;;;5014837;28;20596;-64
2022/07/30 11:29:34;;;;;;;2.88;1.98;;;29.80;52.70;;;;;;5014768;28;20673;-63
2022/07/30 11:32:27;;;;;;;17.25;6.10;;;29.60;52.60;;;;;;5014922;28;20317;-65
2022/07/30 11:35:13;;;;;;;3.40;2.08;;;29.60;53.00;;;;;;5014631;28;20559;-63
2022/07/30 11:38:01;;;;;;;4.80;1.88;;;29.80;53.10;;;;;;5014656;28;20230;-64
2022/07/30 11:40:29;;;;;;;5.25;2.03;;;29.70;52.60;;;;;;5014144;28;20257;-64
2022/07/30 11:43:15;;;;;;;4.70;1.88;;;29.40;52.90;;;;;;5014717;28;20203;-63
2022/07/30 11:45:43;;;;;;;8.82;2.00;;;29.60;53.30;;;;;;5014227;28;20210;-63
2022/07/30 11:48:14;;;;;;;4.20;1.60;;;29.90;52.90;;;;;;5014327;28;20265;-63
2022/07/30 11:50:42;;;;;;;5.90;2.40;;;30.20;51.50;;;;;;5013839;28;20238;-64
2022/07/30 11:53:13;;;;;;;9.82;2.08;;;30.50;52.50;;;;;;5014141;28;20765;-66
2022/07/30 11:55:42;;;;;;;4.78;2.10;;;30.30;52.70;;;;;;5014209;28;20697;-63
2022/07/30 11:58:11;;;;;;;6.32;2.35;;;30.20;52.80;;;;;;5013981;28;20893;-63
2022/07/30 12:00:39;;;;;;;6.35;2.10;;;30.20;53.00;;;;;;5013864;28;20222;-63
2022/07/30 12:03:13;;;;;;;5.43;1.90;;;30.00;52.60;;;;;;5014039;28;20211;-63
2022/07/30 12:05:40;;;;;;;5.05;1.60;;;29.60;52.80;;;;;;5014113;28;20211;-63
2022/07/30 12:08:07;;;;;;;11.13;2.13;;;29.40;52.70;;;;;;5014099;28;20207;-64
2022/07/30 12:10:35;;;;;;;3.22;1.65;;;29.40;51.50;;;;;;5013655;28;20226;-64
2022/07/30 12:13:09;;;;;;;7.03;2.03;;;29.40;51.00;;;;;;5014172;28;20234;-64
2022/07/30 12:15:38;;;;;;;3.35;1.50;;;29.50;50.00;;;;;;5014317;28;20237;-65
2022/07/30 12:18:06;;;;;;;4.03;1.85;;;29.40;50.20;;;;;;5014011;28;20587;-64
2022/07/30 12:20:35;;;;;;;3.22;1.73;;;29.40;50.30;;;;;;5013346;28;20234;-64
2022/07/30 12:23:02;;;;;;;2.42;1.52;;;29.60;50.20;;;;;;5013008;28;20207;-65
2022/07/30 12:25:29;;;;;;;3.35;1.40;;;30.00;49.80;;;;;;5014299;28;20231;-64
2022/07/30 12:27:56;;;;;;;3.03;1.33;;;30.40;50.10;;;;;;5013840;28;20570;-64
2022/07/30 12:30:23;;;;;;;1.35;1.25;;;30.90;49.00;;;;;;5013239;28;20281;-63
2022/07/30 12:32:50;;;;;;;5.00;1.42;;;31.20;48.30;;;;;;5013632;28;20560;-64
2022/07/30 12:35:17;;;;;;;3.40;1.60;;;31.40;47.80;;;;;;5013238;28;20293;-63
2022/07/30 12:38:03;;;;;;;10.25;2.38;;;31.30;47.50;;;;;;5013049;28;20210;-63
2022/07/30 12:40:30;;;;;;;3.75;1.60;;;31.00;48.60;;;;;;5012925;28;20322;-63
2022/07/30 12:42:57;;;;;;;3.65;1.58;;;30.60;48.80;;;;;;5013353;28;20233;-63
2022/07/30 12:45:29;;;;;;;4.22;1.63;;;30.30;49.10;;;;;;5013340;28;20639;-63
2022/07/30 12:47:56;;;;;;;3.30;1.90;;;30.30;49.40;;;;;;5010169;28;20775;-64
2022/07/30 12:50:23;;;;;;;1.95;1.55;;;30.60;49.30;;;;;;5011911;28;20691;-65
2022/07/30 12:52:53;;;;;;;3.40;1.38;;;31.00;49.20;;;;;;5012471;28;20436;-65
2022/07/30 12:55:29;;;;;;;2.05;1.50;;;31.40;49.00;;;;;;5012083;28;20211;-65